Time;durP1;ratioP1;P1;durP2;ratioP2;P2;SDS_P1;SDS_P2;PMS_P1;PMS_P2;Temp;Humidity;BMP_temperature;BMP_pressure;BME280_temperature;BME280_humidity;BME280_pressure;Samples;Min_cycle;Max_cycle;Signal;HPM_P1;HPM_P2
2021/05/26 00:01:26;;;;;;;3.05;2.00;;;13.70;99.90;;;;;;5046614;28;20636;-83
2021/05/26 00:03:53;;;;;;;1.52;1.30;;;13.70;99.90;;;;;;5044661;28;20214;-83
2021/05/26 00:06:19;;;;;;;1.95;1.20;;;13.70;99.90;;;;;;5036038;28;20250;-83
2021/05/26 00:08:46;;;;;;;2.90;1.30;;;13.70;99.90;;;;;;5036802;28;20217;-82
2021/05/26 00:11:14;;;;;;;2.15;1.38;;;13.70;99.90;;;;;;5036597;28;20195;-82
2021/05/26 00:13:43;;;;;;;1.60;1.50;;;13.70;99.90;;;;;;5040607;28;20221;-82
2021/05/26 00:16:09;;;;;;;3.08;1.75;;;13.70;99.90;;;;;;5048735;28;20431;-82
2021/05/26 00:18:36;;;;;;;1.67;1.45;;;13.70;99.90;;;;;;5046814;28;20755;-84
2021/05/26 00:21:04;;;;;;;3.63;1.42;;;13.70;99.90;;;;;;5048937;28;20222;-82
2021/05/26 00:23:30;;;;;;;2.38;1.40;;;13.60;99.90;;;;;;5047009;28;20215;-83
2021/05/26 00:25:57;;;;;;;1.50;1.40;;;13.60;99.90;;;;;;5049772;28;20219;-83
2021/05/26 00:28:23;;;;;;;3.40;1.60;;;13.70;99.90;;;;;;5044584;28;20213;-82
2021/05/26 00:30:51;;;;;;;3.30;1.20;;;13.70;99.90;;;;;;5043406;28;20217;-82
2021/05/26 00:33:20;;;;;;;2.20;1.50;;;13.70;99.90;;;;;;5048001;28;20217;-82
2021/05/26 00:35:47;;;;;;;2.25;1.70;;;13.60;99.90;;;;;;5048629;28;20311;-82
2021/05/26 00:38:14;;;;;;;2.15;1.60;;;13.70;99.90;;;;;;5049297;28;20218;-82
2021/05/26 00:40:41;;;;;;;1.42;1.30;;;13.60;99.90;;;;;;5047850;28;20215;-82
2021/05/26 00:43:08;;;;;;;1.42;1.33;;;13.60;99.90;;;;;;5047027;28;20228;-82
2021/05/26 00:45:35;;;;;;;1.73;1.20;;;13.50;99.90;;;;;;5048652;28;20223;-82
2021/05/26 00:48:03;;;;;;;2.40;1.50;;;13.50;99.90;;;;;;5040234;28;20246;-82
2021/05/26 00:50:32;;;;;;;3.20;1.63;;;13.50;99.90;;;;;;5045547;28;20223;-84
2021/05/26 00:52:59;;;;;;;2.53;1.40;;;13.50;99.90;;;;;;5048419;28;20301;-83
2021/05/26 00:55:25;;;;;;;2.05;1.50;;;13.50;99.90;;;;;;5049542;28;20210;-83
2021/05/26 00:57:52;;;;;;;2.25;1.67;;;13.50;99.90;;;;;;5045708;28;20191;-82
2021/05/26 01:00:20;;;;;;;3.45;1.42;;;13.40;99.90;;;;;;5048727;28;20234;-82
2021/05/26 01:02:49;;;;;;;2.67;1.92;;;13.40;99.90;;;;;;5048278;28;20223;-81
2021/05/26 01:05:18;;;;;;;3.15;1.80;;;13.40;99.90;;;;;;5050652;28;20705;-83
2021/05/26 01:07:44;;;;;;;1.80;1.52;;;13.30;99.90;;;;;;5068713;28;20229;-81
2021/05/26 01:10:13;;;;;;;2.30;1.38;;;13.40;99.90;;;;;;5062887;28;20199;-83
2021/05/26 01:12:40;;;;;;;1.73;1.35;;;13.40;99.90;;;;;;5047644;28;20685;-83
2021/05/26 01:15:09;;;;;;;1.30;1.20;;;13.40;99.90;;;;;;5053240;28;20283;-84
2021/05/26 01:17:36;;;;;;;1.40;1.30;;;13.50;99.90;;;;;;5052065;28;20211;-83
2021/05/26 01:20:03;;;;;;;1.92;1.10;;;13.30;99.90;;;;;;5050166;28;20649;-83
2021/05/26 01:22:30;;;;;;;2.28;1.52;;;13.40;99.90;;;;;;5053366;28;20211;-85
2021/05/26 01:24:56;;;;;;;2.45;1.42;;;13.40;99.90;;;;;;5052233;28;20198;-83
2021/05/26 01:27:23;;;;;;;2.40;1.40;;;13.50;99.90;;;;;;5050433;28;20230;-84
2021/05/26 01:29:50;;;;;;;1.35;1.20;;;13.50;99.90;;;;;;5050672;28;20227;-85
2021/05/26 01:32:17;;;;;;;2.88;1.30;;;13.50;99.90;;;;;;5050068;28;20668;-85
2021/05/26 01:34:43;;;;;;;2.17;1.20;;;13.50;99.90;;;;;;5042473;28;20250;-84
2021/05/26 01:37:09;;;;;;;5.15;1.30;;;13.40;99.90;;;;;;5041793;28;20218;-85
2021/05/26 01:39:36;;;;;;;4.53;1.63;;;13.40;99.90;;;;;;5050887;28;20215;-83
2021/05/26 01:42:03;;;;;;;2.22;1.60;;;13.30;99.90;;;;;;5041983;28;20215;-83
2021/05/26 01:44:33;;;;;;;3.45;2.03;;;13.30;99.90;;;;;;5045605;28;20230;-82
2021/05/26 01:47:00;;;;;;;2.28;1.40;;;13.40;99.90;;;;;;5049524;28;20214;-82
2021/05/26 01:49:26;;;;;;;1.55;1.17;;;13.40;99.90;;;;;;5051656;28;20219;-82
2021/05/26 01:51:52;;;;;;;3.63;1.98;;;13.40;99.90;;;;;;5050116;28;20280;-81
2021/05/26 01:54:18;;;;;;;2.33;1.42;;;13.40;99.90;;;;;;5052505;28;20221;-83
2021/05/26 01:56:46;;;;;;;3.60;1.63;;;13.40;99.90;;;;;;5050363;28;20202;-82
2021/05/26 01:59:12;;;;;;;1.80;1.38;;;13.40;99.90;;;;;;5050869;28;20222;-83
2021/05/26 02:01:38;;;;;;;2.28;1.50;;;13.30;99.90;;;;;;5050013;28;20227;-83
2021/05/26 02:04:04;;;;;;;1.20;1.08;;;13.30;99.90;;;;;;5050825;28;20215;-84
2021/05/26 02:06:32;;;;;;;2.90;1.35;;;13.20;99.90;;;;;;5050380;28;20211;-83
2021/05/26 02:08:58;;;;;;;2.20;1.50;;;13.30;99.90;;;;;;5049416;28;20191;-83
2021/05/26 02:14:11;;;;;;;3.47;1.63;;;13.30;99.90;;;;;;5049195;28;20221;-84
2021/05/26 02:16:38;;;;;;;2.25;1.67;;;13.30;99.90;;;;;;5048953;28;20215;-83
2021/05/26 02:19:05;;;;;;;1.85;1.60;;;13.20;99.90;;;;;;5051333;28;20723;-82
2021/05/26 02:21:31;;;;;;;1.33;1.23;;;13.30;99.90;;;;;;5049654;28;20219;-84
2021/05/26 02:23:57;;;;;;;2.50;1.48;;;13.20;99.90;;;;;;5050573;28;20202;-84
2021/05/26 02:26:24;;;;;;;1.60;1.40;;;13.20;99.90;;;;;;5047221;28;20223;-84
2021/05/26 02:28:50;;;;;;;1.73;1.35;;;13.10;99.90;;;;;;5051168;28;20217;-85
2021/05/26 02:31:17;;;;;;;1.80;1.42;;;13.20;99.90;;;;;;5050459;28;20246;-85
2021/05/26 02:33:44;;;;;;;1.85;1.00;;;13.20;99.90;;;;;;5048585;28;20210;-83
2021/05/26 02:36:10;;;;;;;2.47;1.35;;;13.20;99.90;;;;;;5049194;28;20211;-85
2021/05/26 02:38:36;;;;;;;1.73;1.33;;;13.20;99.90;;;;;;5050762;28;20214;-85
2021/05/26 02:41:02;;;;;;;2.00;1.30;;;13.10;99.90;;;;;;5049819;28;20201;-84
2021/05/26 02:43:29;;;;;;;1.90;1.60;;;13.20;99.90;;;;;;5050463;28;20233;-84
2021/05/26 02:45:55;;;;;;;1.70;1.40;;;13.20;99.90;;;;;;5048620;28;20685;-85
2021/05/26 02:48:22;;;;;;;2.28;1.80;;;13.10;99.90;;;;;;5050276;28;20211;-83
2021/05/26 02:50:49;;;;;;;4.20;1.80;;;13.10;99.90;;;;;;5049125;28;20218;-82
2021/05/26 02:53:15;;;;;;;1.65;1.45;;;13.20;99.90;;;;;;5051138;28;20693;-83
2021/05/26 02:55:41;;;;;;;1.80;1.63;;;13.10;99.90;;;;;;5047616;28;20195;-84
2021/05/26 02:58:07;;;;;;;3.58;1.25;;;13.10;99.90;;;;;;5049720;28;20297;-84
2021/05/26 03:00:33;;;;;;;2.17;1.38;;;13.10;99.90;;;;;;5045186;28;20223;-83
2021/05/26 03:03:00;;;;;;;1.50;1.40;;;13.10;99.90;;;;;;5050746;28;20206;-84
2021/05/26 03:05:27;;;;;;;2.67;1.40;;;13.00;99.90;;;;;;5048981;28;20227;-85
2021/05/26 03:07:53;;;;;;;1.40;1.27;;;13.00;99.90;;;;;;5050343;28;20409;-86
2021/05/26 03:10:19;;;;;;;2.08;1.88;;;13.00;99.90;;;;;;5048816;28;20218;-84
2021/05/26 03:12:46;;;;;;;6.97;3.03;;;13.00;99.90;;;;;;5048481;28;20215;-83
2021/05/26 03:15:15;;;;;;;2.35;2.13;;;12.90;99.90;;;;;;5039469;28;20219;-83
2021/05/26 03:17:41;;;;;;;4.25;1.55;;;13.00;99.90;;;;;;5049126;28;20195;-83
2021/05/26 03:20:12;;;;;;;2.10;1.75;;;13.00;99.90;;;;;;5048809;28;20846;-83
2021/05/26 03:22:40;;;;;;;2.63;1.92;;;12.90;99.90;;;;;;5050454;28;20183;-82
2021/05/26 03:25:08;;;;;;;3.35;1.70;;;12.90;99.90;;;;;;5047912;28;20219;-83
2021/05/26 03:27:36;;;;;;;4.97;1.75;;;12.90;99.90;;;;;;5042753;28;20227;-82
2021/05/26 03:30:03;;;;;;;1.80;1.50;;;12.90;99.90;;;;;;5036456;28;20215;-82
2021/05/26 03:32:30;;;;;;;4.50;1.50;;;12.90;99.90;;;;;;5046700;28;20641;-83
2021/05/26 03:34:56;;;;;;;3.40;1.98;;;12.90;99.90;;;;;;5042775;28;20191;-83
2021/05/26 03:37:22;;;;;;;5.55;1.90;;;12.90;99.90;;;;;;5043882;28;20211;-83
2021/05/26 03:39:49;;;;;;;5.72;1.83;;;12.90;99.90;;;;;;5042505;28;20187;-82
2021/05/26 03:42:16;;;;;;;2.83;1.58;;;12.80;99.90;;;;;;5045117;28;20215;-83
2021/05/26 03:44:42;;;;;;;2.78;1.52;;;12.80;99.90;;;;;;5043026;28;20233;-83
2021/05/26 03:47:08;;;;;;;2.17;1.98;;;12.80;99.90;;;;;;5043716;28;20235;-83
2021/05/26 03:49:34;;;;;;;5.05;1.80;;;12.80;99.90;;;;;;5047220;28;20215;-82
2021/05/26 03:52:01;;;;;;;2.85;1.45;;;12.80;99.90;;;;;;5036672;28;20219;-83
2021/05/26 03:54:27;;;;;;;2.15;1.38;;;12.80;99.90;;;;;;5048030;28;20369;-84
2021/05/26 03:56:54;;;;;;;2.45;1.65;;;12.80;99.90;;;;;;5043855;28;20215;-83
2021/05/26 03:59:21;;;;;;;2.30;1.40;;;12.80;99.90;;;;;;5040842;28;20689;-85
2021/05/26 04:01:47;;;;;;;3.50;1.85;;;12.70;99.90;;;;;;5048438;28;20661;-85
2021/05/26 04:04:14;;;;;;;2.95;1.85;;;12.80;99.90;;;;;;5049618;28;20680;-83
2021/05/26 04:06:40;;;;;;;2.40;1.83;;;12.80;99.90;;;;;;5048506;28;20472;-85
2021/05/26 04:09:06;;;;;;;3.05;1.75;;;12.80;99.90;;;;;;5048593;28;20714;-84
2021/05/26 04:11:32;;;;;;;1.80;1.35;;;12.80;99.90;;;;;;5047019;28;20262;-84
2021/05/26 04:14:00;;;;;;;4.25;2.70;;;12.80;99.90;;;;;;5049258;28;20225;-84
2021/05/26 04:16:26;;;;;;;4.18;1.83;;;12.80;99.90;;;;;;5042392;28;20264;-85
2021/05/26 04:18:52;;;;;;;3.30;1.60;;;12.80;99.90;;;;;;5050138;28;20218;-84
2021/05/26 04:21:18;;;;;;;5.05;2.85;;;12.80;99.90;;;;;;5043306;28;20203;-85
2021/05/26 04:23:44;;;;;;;2.88;2.58;;;12.80;99.90;;;;;;5047013;28;20234;-84
2021/05/26 04:26:11;;;;;;;3.15;2.30;;;12.80;99.90;;;;;;5044198;28;20222;-86
2021/05/26 04:28:42;;;;;;;5.22;2.20;;;12.80;99.90;;;;;;5041233;28;20216;-85
2021/05/26 04:31:09;;;;;;;2.38;1.90;;;12.80;99.90;;;;;;5045284;28;20251;-84
2021/05/26 04:33:36;;;;;;;3.30;1.90;;;12.80;99.90;;;;;;5049514;28;20265;-84
2021/05/26 04:36:02;;;;;;;2.30;2.00;;;12.80;99.90;;;;;;5049066;28;20221;-84
2021/05/26 04:38:28;;;;;;;7.32;2.42;;;12.80;99.90;;;;;;5048529;28;20252;-85
2021/05/26 04:40:54;;;;;;;4.78;2.20;;;12.80;99.90;;;;;;5051361;28;20223;-86
2021/05/26 04:43:20;;;;;;;4.57;2.38;;;12.70;99.90;;;;;;5052230;28;20226;-84
2021/05/26 04:45:47;;;;;;;2.97;2.00;;;12.70;99.90;;;;;;5052781;28;20214;-85
2021/05/26 04:48:14;;;;;;;4.15;1.98;;;12.80;99.90;;;;;;5051338;28;20222;-84
2021/05/26 04:50:41;;;;;;;3.58;1.80;;;12.80;99.90;;;;;;5052621;28;20742;-84
2021/05/26 04:53:07;;;;;;;2.95;2.65;;;12.80;99.90;;;;;;5053515;28;20229;-83
2021/05/26 04:55:33;;;;;;;4.60;2.30;;;12.80;99.90;;;;;;5052920;28;20223;-84
2021/05/26 04:58:00;;;;;;;4.80;1.85;;;12.80;99.90;;;;;;5051438;28;20233;-86
2021/05/26 05:00:26;;;;;;;4.15;2.42;;;12.80;99.90;;;;;;5052442;28;20226;-86
2021/05/26 05:02:53;;;;;;;2.97;1.80;;;12.80;99.90;;;;;;5054623;28;20205;-84
2021/05/26 05:05:20;;;;;;;4.18;2.20;;;12.80;99.90;;;;;;5054956;28;20820;-84
2021/05/26 05:07:47;;;;;;;5.80;2.03;;;12.80;99.90;;;;;;5061401;28;20226;-83
2021/05/26 05:10:14;;;;;;;6.65;3.35;;;12.70;99.90;;;;;;5065510;28;20268;-84
2021/05/26 05:12:40;;;;;;;6.40;2.45;;;12.70;99.90;;;;;;5044822;28;20215;-84
2021/05/26 05:15:07;;;;;;;2.75;2.17;;;12.80;99.90;;;;;;5042093;28;20668;-84
2021/05/26 05:17:34;;;;;;;3.67;2.05;;;12.70;99.90;;;;;;5046153;28;20211;-84
2021/05/26 05:20:00;;;;;;;2.40;1.65;;;12.80;99.90;;;;;;5043485;28;20203;-84
2021/05/26 05:22:27;;;;;;;6.03;2.15;;;12.70;99.90;;;;;;5043916;28;20211;-84
2021/05/26 05:24:54;;;;;;;2.97;2.00;;;12.70;99.90;;;;;;5046508;28;20305;-84
2021/05/26 05:27:20;;;;;;;5.20;2.50;;;12.70;99.90;;;;;;5045398;28;20234;-82
2021/05/26 05:29:47;;;;;;;5.82;2.20;;;12.70;99.90;;;;;;5044390;28;20214;-83
2021/05/26 05:32:13;;;;;;;3.20;2.40;;;12.70;99.90;;;;;;5051573;28;20731;-83
2021/05/26 05:34:39;;;;;;;7.55;2.17;;;12.70;99.90;;;;;;5049569;28;20207;-84
2021/05/26 05:37:06;;;;;;;3.72;2.22;;;12.70;99.90;;;;;;5051905;28;20215;-81
2021/05/26 05:39:33;;;;;;;3.72;2.15;;;12.70;99.90;;;;;;5049815;28;20233;-83
2021/05/26 05:41:59;;;;;;;4.15;2.70;;;12.70;99.90;;;;;;5051712;28;20211;-83
2021/05/26 05:44:25;;;;;;;3.50;2.10;;;12.70;99.90;;;;;;5050332;28;20227;-83
2021/05/26 05:46:51;;;;;;;4.63;2.65;;;12.70;99.90;;;;;;5050377;28;20222;-83
2021/05/26 05:49:18;;;;;;;2.97;2.03;;;12.80;99.90;;;;;;5051112;28;20218;-84
2021/05/26 05:51:44;;;;;;;4.45;3.10;;;12.70;99.90;;;;;;5048509;28;20378;-84
2021/05/26 05:54:10;;;;;;;3.67;2.70;;;12.80;99.90;;;;;;5037183;28;20590;-84
2021/05/26 05:56:37;;;;;;;7.82;3.03;;;12.80;99.90;;;;;;5038352;28;20580;-82
2021/05/26 05:59:03;;;;;;;4.65;1.73;;;12.80;99.90;;;;;;5040074;28;20701;-80
2021/05/26 06:01:30;;;;;;;5.03;2.78;;;12.90;99.90;;;;;;5043934;28;20195;-81
2021/05/26 06:03:56;;;;;;;4.15;2.38;;;12.80;99.90;;;;;;5045567;28;20206;-84
2021/05/26 06:06:22;;;;;;;5.43;3.53;;;12.90;99.90;;;;;;5048250;28;20241;-82
2021/05/26 06:08:49;;;;;;;3.70;1.95;;;12.90;99.90;;;;;;5043213;28;20214;-84
2021/05/26 06:11:15;;;;;;;2.50;2.25;;;12.90;99.90;;;;;;5048212;28;20211;-84
2021/05/26 06:13:46;;;;;;;4.55;2.08;;;12.90;99.90;;;;;;5045774;28;20198;-82
2021/05/26 06:16:12;;;;;;;4.30;2.63;;;12.90;99.90;;;;;;5050209;28;20565;-83
2021/05/26 06:18:39;;;;;;;4.25;2.08;;;12.90;99.90;;;;;;5049317;28;20245;-83
2021/05/26 06:21:05;;;;;;;3.75;2.40;;;13.00;99.90;;;;;;5047533;28;20700;-84
2021/05/26 06:23:31;;;;;;;3.90;2.15;;;12.90;99.90;;;;;;5051422;28;20612;-82
2021/05/26 06:25:58;;;;;;;2.42;2.22;;;13.00;99.90;;;;;;5048321;28;20245;-82
2021/05/26 06:28:24;;;;;;;3.95;2.13;;;13.00;99.90;;;;;;5049125;28;20256;-83
2021/05/26 06:30:52;;;;;;;3.80;2.17;;;13.00;99.90;;;;;;5049213;28;20253;-81
2021/05/26 06:33:18;;;;;;;3.78;2.10;;;13.00;99.90;;;;;;5050263;28;20230;-80
2021/05/26 06:35:44;;;;;;;3.05;2.22;;;13.00;99.90;;;;;;5045723;28;20585;-82
2021/05/26 06:38:11;;;;;;;3.75;2.00;;;13.00;99.90;;;;;;5040296;28;20215;-82
2021/05/26 06:40:37;;;;;;;2.13;1.92;;;13.00;99.90;;;;;;5037204;28;22676;-80
2021/05/26 06:43:03;;;;;;;3.08;1.70;;;13.00;99.90;;;;;;5046828;28;20239;-82
2021/05/26 06:45:29;;;;;;;1.77;1.55;;;13.10;99.90;;;;;;5041117;28;20223;-81
2021/05/26 06:47:57;;;;;;;3.10;2.58;;;13.20;99.90;;;;;;5042935;28;20260;-81
2021/05/26 06:50:23;;;;;;;2.45;1.88;;;13.20;99.90;;;;;;5044117;28;20273;-82
2021/05/26 06:52:50;;;;;;;2.33;1.83;;;13.30;99.90;;;;;;5038019;28;20610;-82
2021/05/26 06:55:16;;;;;;;2.70;1.60;;;13.50;99.90;;;;;;5040020;28;20729;-80
2021/05/26 06:57:43;;;;;;;2.25;1.50;;;13.60;99.90;;;;;;5039668;28;20285;-81
2021/05/26 07:00:10;;;;;;;1.67;1.58;;;13.70;99.90;;;;;;5044157;28;20276;-79
2021/05/26 07:02:36;;;;;;;2.40;1.65;;;13.70;99.90;;;;;;5048480;28;20191;-79
2021/05/26 07:05:04;;;;;;;2.72;1.60;;;13.70;99.90;;;;;;5042212;28;20246;-78
2021/05/26 07:07:31;;;;;;;3.75;1.98;;;13.80;99.90;;;;;;5040336;28;20288;-79
2021/05/26 07:09:57;;;;;;;2.85;1.60;;;13.90;99.90;;;;;;5043213;28;20211;-79
2021/05/26 07:12:23;;;;;;;6.00;1.85;;;14.00;99.90;;;;;;5049410;28;20217;-78
2021/05/26 07:14:49;;;;;;;4.40;2.60;;;14.00;99.90;;;;;;5042450;28;20222;-79
2021/05/26 07:17:16;;;;;;;2.53;1.83;;;14.00;99.90;;;;;;5043156;28;20187;-83
2021/05/26 07:19:42;;;;;;;3.20;1.52;;;14.00;99.90;;;;;;5043598;28;20214;-80
2021/05/26 07:22:09;;;;;;;2.03;1.70;;;14.00;99.90;;;;;;5042192;28;20216;-80
2021/05/26 07:24:35;;;;;;;3.05;1.80;;;14.00;99.90;;;;;;5048388;28;20215;-78
2021/05/26 07:27:01;;;;;;;2.97;1.60;;;14.00;99.90;;;;;;5047619;28;20219;-79
2021/05/26 07:29:28;;;;;;;2.10;1.40;;;14.00;99.90;;;;;;5045330;28;20341;-80
2021/05/26 07:31:54;;;;;;;2.60;1.27;;;14.00;99.90;;;;;;5050351;28;20237;-84
2021/05/26 07:34:20;;;;;;;1.63;1.50;;;14.00;99.90;;;;;;5048567;28;20681;-83
2021/05/26 07:36:46;;;;;;;2.78;1.80;;;14.00;99.90;;;;;;5048606;28;20211;-84
2021/05/26 07:39:13;;;;;;;3.90;2.10;;;14.00;99.90;;;;;;5044982;28;20527;-80
2021/05/26 07:41:40;;;;;;;4.93;2.00;;;13.90;99.90;;;;;;5043773;28;20222;-83
2021/05/26 07:44:06;;;;;;;2.63;1.40;;;13.90;99.90;;;;;;5044986;28;20235;-83
2021/05/26 07:46:33;;;;;;;1.90;1.55;;;13.90;99.90;;;;;;5047990;28;20230;-82
2021/05/26 07:48:59;;;;;;;3.30;1.33;;;13.80;99.90;;;;;;5048005;28;20210;-78
2021/05/26 07:51:29;;;;;;;1.80;1.33;;;13.80;99.90;;;;;;5047896;28;20211;-79
2021/05/26 07:53:56;;;;;;;1.85;1.40;;;13.80;99.90;;;;;;5047423;28;20210;-76
2021/05/26 07:56:27;;;;;;;3.70;1.40;;;13.80;99.90;;;;;;5048096;28;20211;-75
2021/05/26 07:58:53;;;;;;;1.42;1.30;;;13.90;99.90;;;;;;5049600;28;20256;-76
2021/05/26 08:01:19;;;;;;;2.67;1.52;;;13.90;99.90;;;;;;5047230;28;20206;-76
2021/05/26 08:03:46;;;;;;;2.28;1.20;;;13.80;99.90;;;;;;5047090;28;20230;-77
2021/05/26 08:06:12;;;;;;;2.22;1.55;;;13.80;99.90;;;;;;5048097;28;20222;-77
2021/05/26 08:08:38;;;;;;;1.45;1.30;;;13.80;99.90;;;;;;5043767;28;20271;-77
2021/05/26 08:11:05;;;;;;;1.40;1.30;;;13.80;99.90;;;;;;5047012;28;20195;-79
2021/05/26 08:13:32;;;;;;;2.03;1.65;;;13.80;99.90;;;;;;5047353;28;20689;-78
2021/05/26 08:15:59;;;;;;;1.48;1.25;;;13.80;99.90;;;;;;5046628;28;20202;-78
2021/05/26 08:18:25;;;;;;;2.85;1.52;;;13.80;99.90;;;;;;5046969;28;20215;-78
2021/05/26 08:20:51;;;;;;;2.63;1.67;;;13.80;99.90;;;;;;5048461;28;20214;-78
2021/05/26 08:23:18;;;;;;;2.15;1.52;;;13.80;99.90;;;;;;5049368;28;20655;-78
2021/05/26 08:25:44;;;;;;;1.77;1.40;;;13.80;99.90;;;;;;5047860;28;20202;-78
2021/05/26 08:28:10;;;;;;;1.60;1.20;;;13.80;99.90;;;;;;5047951;28;20218;-77
2021/05/26 08:30:37;;;;;;;1.60;1.50;;;13.70;99.90;;;;;;5048278;28;20221;-78
2021/05/26 08:33:03;;;;;;;2.67;1.50;;;13.70;99.90;;;;;;5048760;28;20218;-78
2021/05/26 08:35:30;;;;;;;2.22;1.40;;;13.70;99.90;;;;;;5048629;28;20214;-79
2021/05/26 08:37:56;;;;;;;1.60;1.50;;;13.60;99.90;;;;;;5047522;28;20249;-78
2021/05/26 08:40:22;;;;;;;2.78;1.70;;;13.70;99.90;;;;;;5047957;28;20218;-77
2021/05/26 08:42:49;;;;;;;3.60;1.30;;;13.70;99.90;;;;;;5048195;28;20685;-78
2021/05/26 08:45:16;;;;;;;1.70;1.40;;;13.70;99.90;;;;;;5046782;28;20573;-77
2021/05/26 08:47:45;;;;;;;1.95;1.60;;;13.90;99.90;;;;;;5048498;28;20675;-77
2021/05/26 08:50:14;;;;;;;2.47;1.42;;;13.90;99.90;;;;;;5048562;28;20218;-78
2021/05/26 08:52:41;;;;;;;2.15;1.40;;;13.90;99.90;;;;;;5047778;28;20217;-77
2021/05/26 08:55:10;;;;;;;1.60;1.20;;;14.00;99.90;;;;;;5047348;28;20206;-78
2021/05/26 08:57:37;;;;;;;2.17;1.40;;;14.00;99.90;;;;;;5049224;28;20194;-78
2021/05/26 09:00:06;;;;;;;2.70;1.40;;;14.10;99.90;;;;;;5045918;28;20230;-79
2021/05/26 09:02:32;;;;;;;1.83;1.50;;;14.20;99.90;;;;;;5048799;28;20215;-78
2021/05/26 09:04:59;;;;;;;2.55;1.33;;;14.40;99.90;;;;;;5048661;28;20211;-77
2021/05/26 09:07:29;;;;;;;1.65;1.33;;;14.50;99.90;;;;;;5048697;28;20628;-79
2021/05/26 09:09:58;;;;;;;1.35;1.15;;;14.60;99.90;;;;;;5046343;28;20199;-78
2021/05/26 09:12:27;;;;;;;1.90;1.65;;;14.70;99.90;;;;;;5046789;28;20280;-78
2021/05/26 09:14:53;;;;;;;4.72;1.58;;;14.80;99.90;;;;;;5044680;28;20195;-78
2021/05/26 09:17:20;;;;;;;4.18;1.38;;;14.90;99.90;;;;;;5038660;28;20601;-77
2021/05/26 09:19:46;;;;;;;2.30;1.15;;;15.00;99.90;;;;;;5035574;28;20212;-78
2021/05/26 09:22:14;;;;;;;1.30;1.10;;;15.20;99.90;;;;;;5042196;28;20217;-79
2021/05/26 09:24:40;;;;;;;1.70;1.45;;;15.20;99.90;;;;;;5037836;28;20252;-79
2021/05/26 09:27:08;;;;;;;3.83;1.42;;;15.30;99.90;;;;;;5045467;28;20897;-77
2021/05/26 09:29:35;;;;;;;2.65;1.35;;;15.20;99.90;;;;;;5049446;28;20207;-81
2021/05/26 09:32:24;;;;;;;3.03;1.05;;;15.20;99.90;;;;;;5050914;28;20724;-80
2021/05/26 09:34:52;;;;;;;1.95;1.10;;;15.30;99.90;;;;;;5044743;28;20297;-80
2021/05/26 09:37:21;;;;;;;1.50;1.30;;;15.40;99.90;;;;;;5050537;28;20230;-81
2021/05/26 09:39:51;;;;;;;1.85;1.30;;;15.50;99.90;;;;;;5052617;28;20299;-79
2021/05/26 09:42:35;;;;;;;1.50;1.20;;;15.60;99.90;;;;;;5049702;28;20219;-80
2021/05/26 09:45:07;;;;;;;2.72;1.33;;;15.70;99.90;;;;;;5041967;28;20689;-78
2021/05/26 09:47:34;;;;;;;1.67;1.10;;;15.70;99.90;;;;;;5046773;28;20245;-79
2021/05/26 09:50:18;;;;;;;2.42;1.40;;;15.80;99.90;;;;;;5044719;28;20214;-79
2021/05/26 09:53:11;;;;;;;1.80;1.30;;;15.80;99.90;;;;;;5041460;28;20519;-79
2021/05/26 09:55:39;;;;;;;3.45;1.48;;;15.70;99.90;;;;;;5052149;28;20281;-79
2021/05/26 09:58:06;;;;;;;1.10;1.00;;;15.70;99.90;;;;;;5049920;28;20191;-80
2021/05/26 10:00:35;;;;;;;1.40;1.00;;;15.70;99.90;;;;;;5040446;28;20231;-79
2021/05/26 10:03:01;;;;;;;1.20;1.10;;;15.70;99.90;;;;;;5038034;28;20219;-80
2021/05/26 10:05:27;;;;;;;3.67;1.60;;;15.70;99.90;;;;;;5045449;28;20218;-79
2021/05/26 10:07:56;;;;;;;1.52;1.15;;;15.70;99.90;;;;;;5044210;28;20223;-82
2021/05/26 10:10:24;;;;;;;2.88;1.15;;;15.70;99.90;;;;;;5050271;28;20732;-80
2021/05/26 10:12:53;;;;;;;1.45;1.17;;;15.80;99.90;;;;;;5050898;28;20195;-79
2021/05/26 10:15:21;;;;;;;1.48;1.23;;;15.80;99.90;;;;;;5050892;28;22322;-79
2021/05/26 10:17:51;;;;;;;2.13;1.10;;;15.80;99.90;;;;;;5048632;28;20222;-80
2021/05/26 10:20:22;;;;;;;1.70;1.48;;;15.80;99.90;;;;;;5032459;28;20245;-79
2021/05/26 10:22:51;;;;;;;3.30;1.20;;;15.90;99.90;;;;;;5048341;28;20284;-80
2021/05/26 10:25:19;;;;;;;1.60;1.13;;;15.90;99.90;;;;;;5050056;28;20215;-80
2021/05/26 10:27:48;;;;;;;1.70;1.10;;;15.90;99.90;;;;;;5050044;28;20225;-81
2021/05/26 10:30:15;;;;;;;1.42;1.08;;;15.90;99.90;;;;;;5049166;28;20763;-79
2021/05/26 10:32:50;;;;;;;1.40;1.30;;;15.90;99.90;;;;;;5051224;28;20313;-80
2021/05/26 10:35:17;;;;;;;2.55;1.20;;;16.00;99.90;;;;;;5050056;28;20214;-82
2021/05/26 10:37:46;;;;;;;2.85;1.33;;;16.00;99.90;;;;;;5050130;28;20215;-83
2021/05/26 10:40:33;;;;;;;1.92;1.30;;;16.00;99.90;;;;;;5049489;28;20898;-83
2021/05/26 10:43:30;;;;;;;1.70;1.35;;;16.00;99.90;;;;;;5050812;28;20776;-82
2021/05/26 10:45:59;;;;;;;1.63;1.17;;;16.00;99.90;;;;;;5049825;28;20201;-85
2021/05/26 10:49:04;;;;;;;1.63;1.30;;;16.00;99.90;;;;;;5049165;28;20704;-80
2021/05/26 10:51:58;;;;;;;1.33;1.00;;;16.00;99.90;;;;;;5047648;28;20191;-80
2021/05/26 10:54:54;;;;;;;1.77;1.30;;;15.90;99.90;;;;;;5049463;28;20199;-83
2021/05/26 10:57:21;;;;;;;1.70;1.50;;;15.90;99.90;;;;;;4968986;28;20204;-88
2021/05/26 11:00:21;;;;;;;1.77;1.20;;;16.00;99.90;;;;;;5029249;28;20226;-88
2021/05/26 11:03:20;;;;;;;1.33;1.23;;;16.00;99.90;;;;;;5050300;28;20222;-84
2021/05/26 11:05:47;;;;;;;1.13;1.00;;;16.00;99.90;;;;;;5049366;28;20219;-81
2021/05/26 11:08:44;;;;;;;4.43;1.10;;;16.10;99.90;;;;;;5044197;28;20230;-81
2021/05/26 11:11:48;;;;;;;1.60;1.30;;;16.10;99.90;;;;;;5043095;28;20194;-80
2021/05/26 11:14:41;;;;;;;1.80;1.30;;;16.10;99.90;;;;;;5046482;28;20261;-82
2021/05/26 11:17:26;;;;;;;2.20;1.30;;;16.10;99.90;;;;;;5050229;28;20211;-82
2021/05/26 11:20:23;;;;;;;2.00;1.60;;;16.10;99.90;;;;;;5047313;28;20223;-80
2021/05/26 11:22:50;;;;;;;1.98;1.38;;;16.10;99.90;;;;;;5050613;28;20215;-83
2021/05/26 11:25:16;;;;;;;2.20;1.40;;;16.20;99.90;;;;;;5046764;28;20255;-84
2021/05/26 11:27:54;;;;;;;1.50;1.10;;;16.20;99.90;;;;;;5033741;28;20227;-81
2021/05/26 11:30:26;;;;;;;1.10;0.95;;;16.20;99.90;;;;;;5049125;28;20214;-84
2021/05/26 11:32:54;;;;;;;3.55;1.38;;;16.20;99.90;;;;;;5050057;28;20215;-82
2021/05/26 11:35:20;;;;;;;1.92;1.48;;;16.20;99.90;;;;;;5048334;28;20215;-81
2021/05/26 11:37:46;;;;;;;2.28;1.60;;;16.20;99.90;;;;;;5048098;28;20194;-80
2021/05/26 11:40:23;;;;;;;1.45;1.23;;;16.30;99.90;;;;;;5046919;28;20211;-80
2021/05/26 11:42:50;;;;;;;1.80;1.20;;;16.20;99.90;;;;;;5048670;28;20227;-79
2021/05/26 11:45:16;;;;;;;1.55;1.35;;;16.30;99.90;;;;;;5048524;28;20692;-79
2021/05/26 11:47:45;;;;;;;3.50;1.10;;;16.30;99.90;;;;;;5049458;28;20534;-79
2021/05/26 11:50:37;;;;;;;4.80;1.40;;;16.30;99.90;;;;;;5048620;28;20219;-80
2021/05/26 11:53:14;;;;;;;1.60;1.10;;;16.30;99.90;;;;;;5044839;28;20285;-79
2021/05/26 11:55:47;;;;;;;1.63;1.40;;;16.40;99.90;;;;;;5047093;28;20190;-79
2021/05/26 11:58:13;;;;;;;2.08;1.40;;;16.40;99.90;;;;;;5048199;28;20631;-79
2021/05/26 12:00:40;;;;;;;2.10;1.90;;;16.40;99.90;;;;;;5050239;28;20215;-80
2021/05/26 12:03:08;;;;;;;1.65;1.13;;;16.40;99.90;;;;;;5053979;28;20221;-80
2021/05/26 12:05:39;;;;;;;1.95;1.27;;;16.40;99.90;;;;;;5049128;28;20202;-79
2021/05/26 12:08:16;;;;;;;1.30;1.15;;;16.40;99.90;;;;;;5048263;28;20234;-79
2021/05/26 12:10:43;;;;;;;1.30;1.20;;;16.40;99.90;;;;;;5048854;28;20645;-78
2021/05/26 12:13:09;;;;;;;1.25;1.15;;;16.50;99.90;;;;;;5049724;28;20250;-79
2021/05/26 12:15:36;;;;;;;1.30;1.10;;;16.50;99.90;;;;;;5047729;28;20226;-80
2021/05/26 12:18:03;;;;;;;1.30;1.20;;;16.50;99.90;;;;;;5049768;28;20214;-79
2021/05/26 12:20:30;;;;;;;1.23;0.95;;;16.50;99.90;;;;;;5048282;28;20252;-80
2021/05/26 12:22:58;;;;;;;1.30;1.20;;;16.50;99.90;;;;;;5049009;28;20624;-79
2021/05/26 12:25:36;;;;;;;1.65;1.35;;;16.50;99.90;;;;;;5049332;28;20229;-79
2021/05/26 12:28:19;;;;;;;1.23;1.13;;;16.50;99.90;;;;;;5049047;28;20210;-80
2021/05/26 12:30:47;;;;;;;4.85;1.50;;;16.50;99.90;;;;;;5048322;28;20422;-80
2021/05/26 12:33:16;;;;;;;1.45;1.35;;;16.50;99.90;;;;;;5048667;28;20218;-79
2021/05/26 12:35:43;;;;;;;2.30;1.10;;;16.50;99.90;;;;;;5048238;28;20268;-80
2021/05/26 12:38:18;;;;;;;3.78;2.20;;;16.50;99.90;;;;;;5049293;28;20225;-80
2021/05/26 12:40:45;;;;;;;3.00;1.35;;;16.50;99.90;;;;;;5046978;28;20217;-81
2021/05/26 12:43:25;;;;;;;1.20;1.08;;;16.50;99.90;;;;;;5049712;28;20230;-81
2021/05/26 12:45:52;;;;;;;1.38;1.05;;;16.50;99.90;;;;;;5046886;28;20214;-80
2021/05/26 12:48:19;;;;;;;1.50;1.30;;;16.50;99.90;;;;;;5049209;28;20731;-81
2021/05/26 12:50:47;;;;;;;1.20;1.10;;;16.50;99.90;;;;;;5047562;28;20256;-81
2021/05/26 12:53:14;;;;;;;1.20;1.10;;;16.50;99.90;;;;;;5048799;28;20190;-80
2021/05/26 12:55:41;;;;;;;2.40;1.50;;;16.50;99.90;;;;;;5047801;28;20210;-81
2021/05/26 12:58:09;;;;;;;1.60;1.50;;;16.50;99.90;;;;;;5049101;28;20675;-81